sensor_id;sensor_type;location;lat;lon;timestamp;temperature;humidity
21778;DHT22;11050;52.222;20.916;2022-10-12T00:00:41;5.70;99.90
21778;DHT22;11050;52.222;20.916;2022-10-12T00:03:06;5.70;99.90
21778;DHT22;11050;52.222;20.916;2022-10-12T00:05:32;5.70;99.90
21778;DHT22;11050;52.222;20.916;2022-10-12T00:07:58;5.70;99.90
21778;DHT22;11050;52.222;20.916;2022-10-12T00:10:25;5.70;99.90
21778;DHT22;11050;52.222;20.916;2022-10-12T00:12:51;5.60;99.90
21778;DHT22;11050;52.222;20.916;2022-10-12T00:15:16;5.60;99.90
21778;DHT22;11050;52.222;20.916;2022-10-12T00:17:42;5.60;99.90
21778;DHT22;11050;52.222;20.916;2022-10-12T00:20:08;5.60;99.90
21778;DHT22;11050;52.222;20.916;2022-10-12T00:22:34;5.60;99.90
21778;DHT22;11050;52.222;20.916;2022-10-12T00:25:00;5.60;99.90
21778;DHT22;11050;52.222;20.916;2022-10-12T00:27:25;5.50;99.90
21778;DHT22;11050;52.222;20.916;2022-10-12T00:29:51;5.50;99.90
21778;DHT22;11050;52.222;20.916;2022-10-12T00:32:17;5.50;99.90
21778;DHT22;11050;52.222;20.916;2022-10-12T00:34:43;5.50;99.90
21778;DHT22;11050;52.222;20.916;2022-10-12T00:37:09;5.50;99.90
21778;DHT22;11050;52.222;20.916;2022-10-12T00:39:35;5.50;99.90
21778;DHT22;11050;52.222;20.916;2022-10-12T00:42:01;5.50;99.90
21778;DHT22;11050;52.222;20.916;2022-10-12T00:44:42;5.50;99.90
21778;DHT22;11050;52.222;20.916;2022-10-12T00:47:14;5.50;99.90
21778;DHT22;11050;52.222;20.916;2022-10-12T00:55:37;5.40;99.90
21778;DHT22;11050;52.222;20.916;2022-10-12T00:58:09;5.40;99.90
21778;DHT22;11050;52.222;20.916;2022-10-12T01:00:36;5.40;99.90
21778;DHT22;11050;52.222;20.916;2022-10-12T01:03:05;5.40;99.90
21778;DHT22;11050;52.222;20.916;2022-10-12T01:05:34;5.30;99.90
21778;DHT22;11050;52.222;20.916;2022-10-12T01:08:03;5.30;99.90
21778;DHT22;11050;52.222;20.916;2022-10-12T01:10:29;5.30;99.90
21778;DHT22;11050;52.222;20.916;2022-10-12T01:12:55;5.30;99.90
21778;DHT22;11050;52.222;20.916;2022-10-12T01:15:22;5.30;99.90
21778;DHT22;11050;52.222;20.916;2022-10-12T01:17:58;5.30;99.90
21778;DHT22;11050;52.222;20.916;2022-10-12T01:20:45;5.20;99.90
21778;DHT22;11050;52.222;20.916;2022-10-12T01:41:31;5.20;99.90
21778;DHT22;11050;52.222;20.916;2022-10-12T01:44:01;5.20;99.90
21778;DHT22;11050;52.222;20.916;2022-10-12T01:48:54;5.20;99.90
21778;DHT22;11050;52.222;20.916;2022-10-12T01:51:52;5.20;99.90
21778;DHT22;11050;52.222;20.916;2022-10-12T02:00:22;5.10;99.90
21778;DHT22;11050;52.222;20.916;2022-10-12T02:08:52;5.10;99.90
21778;DHT22;11050;52.222;20.916;2022-10-12T02:11:25;5.10;99.90
21778;DHT22;11050;52.222;20.916;2022-10-12T02:16:52;5.10;99.90
21778;DHT22;11050;52.222;20.916;2022-10-12T02:19:25;5.00;99.90
21778;DHT22;11050;52.222;20.916;2022-10-12T02:21:59;5.00;99.90
21778;DHT22;11050;52.222;20.916;2022-10-12T02:24:27;5.00;99.90
21778;DHT22;11050;52.222;20.916;2022-10-12T02:26:55;5.00;99.90
21778;DHT22;11050;52.222;20.916;2022-10-12T02:29:26;5.00;99.90
21778;DHT22;11050;52.222;20.916;2022-10-12T02:35:23;5.00;99.90
21778;DHT22;11050;52.222;20.916;2022-10-12T02:40:55;4.90;99.90
21778;DHT22;11050;52.222;20.916;2022-10-12T02:43:47;4.90;99.90
21778;DHT22;11050;52.222;20.916;2022-10-12T02:46:19;4.90;99.90
21778;DHT22;11050;52.222;20.916;2022-10-12T02:48:49;4.90;99.90
21778;DHT22;11050;52.222;20.916;2022-10-12T02:51:18;4.90;99.90
21778;DHT22;11050;52.222;20.916;2022-10-12T02:53:46;4.90;99.90
21778;DHT22;11050;52.222;20.916;2022-10-12T02:56:14;4.90;99.90
21778;DHT22;11050;52.222;20.916;2022-10-12T02:58:42;4.90;99.90
21778;DHT22;11050;52.222;20.916;2022-10-12T03:01:10;4.90;99.90
21778;DHT22;11050;52.222;20.916;2022-10-12T03:03:37;4.90;99.90
21778;DHT22;11050;52.222;20.916;2022-10-12T03:06:03;4.90;99.90
21778;DHT22;11050;52.222;20.916;2022-10-12T03:08:29;4.90;99.90
21778;DHT22;11050;52.222;20.916;2022-10-12T03:11:01;4.80;99.90
21778;DHT22;11050;52.222;20.916;2022-10-12T03:13:28;4.80;99.90
21778;DHT22;11050;52.222;20.916;2022-10-12T03:16:06;4.80;99.90
21778;DHT22;11050;52.222;20.916;2022-10-12T03:18:34;4.80;99.90
21778;DHT22;11050;52.222;20.916;2022-10-12T03:21:00;4.80;99.90
21778;DHT22;11050;52.222;20.916;2022-10-12T03:23:27;4.80;99.90
21778;DHT22;11050;52.222;20.916;2022-10-12T03:25:52;4.80;99.90
21778;DHT22;11050;52.222;20.916;2022-10-12T03:28:18;4.80;99.90
21778;DHT22;11050;52.222;20.916;2022-10-12T03:30:44;4.70;99.90
21778;DHT22;11050;52.222;20.916;2022-10-12T03:33:10;4.70;99.90
21778;DHT22;11050;52.222;20.916;2022-10-12T03:35:36;4.70;99.90
21778;DHT22;11050;52.222;20.916;2022-10-12T03:38:02;4.70;99.90
21778;DHT22;11050;52.222;20.916;2022-10-12T03:40:28;4.70;99.90
21778;DHT22;11050;52.222;20.916;2022-10-12T03:42:54;4.70;99.90
21778;DHT22;11050;52.222;20.916;2022-10-12T03:45:19;4.70;99.90
21778;DHT22;11050;52.222;20.916;2022-10-12T03:47:45;4.70;99.90
21778;DHT22;11050;52.222;20.916;2022-10-12T03:50:12;4.70;99.90
21778;DHT22;11050;52.222;20.916;2022-10-12T03:52:38;4.70;99.90
21778;DHT22;11050;52.222;20.916;2022-10-12T03:55:04;4.70;99.90
21778;DHT22;11050;52.222;20.916;2022-10-12T03:57:30;4.70;99.90
21778;DHT22;11050;52.222;20.916;2022-10-12T03:59:56;4.70;99.90
21778;DHT22;11050;52.222;20.916;2022-10-12T04:02:22;4.60;99.90
21778;DHT22;11050;52.222;20.916;2022-10-12T04:04:47;4.60;99.90
21778;DHT22;11050;52.222;20.916;2022-10-12T04:07:13;4.60;99.90
21778;DHT22;11050;52.222;20.916;2022-10-12T04:09:39;4.60;99.90
21778;DHT22;11050;52.222;20.916;2022-10-12T04:12:05;4.60;99.90
21778;DHT22;11050;52.222;20.916;2022-10-12T04:14:30;4.60;99.90
21778;DHT22;11050;52.222;20.916;2022-10-12T04:16:56;4.60;99.90
21778;DHT22;11050;52.222;20.916;2022-10-12T04:19:22;4.60;99.90
21778;DHT22;11050;52.222;20.916;2022-10-12T04:21:48;4.60;99.90
21778;DHT22;11050;52.222;20.916;2022-10-12T04:24:13;4.50;99.90
21778;DHT22;11050;52.222;20.916;2022-10-12T04:26:39;4.60;99.90
21778;DHT22;11050;52.222;20.916;2022-10-12T04:29:05;4.50;99.90
21778;DHT22;11050;52.222;20.916;2022-10-12T04:31:30;4.50;99.90
21778;DHT22;11050;52.222;20.916;2022-10-12T04:33:56;4.50;99.90
21778;DHT22;11050;52.222;20.916;2022-10-12T04:36:23;4.50;99.90
21778;DHT22;11050;52.222;20.916;2022-10-12T04:38:51;4.40;99.90
21778;DHT22;11050;52.222;20.916;2022-10-12T04:41:17;4.50;99.90
21778;DHT22;11050;52.222;20.916;2022-10-12T04:43:43;4.40;99.90
21778;DHT22;11050;52.222;20.916;2022-10-12T04:46:09;4.40;99.90
21778;DHT22;11050;52.222;20.916;2022-10-12T04:48:35;4.30;99.90
21778;DHT22;11050;52.222;20.916;2022-10-12T04:51:01;4.30;99.90
21778;DHT22;11050;52.222;20.916;2022-10-12T04:53:27;4.40;99.90
21778;DHT22;11050;52.222;20.916;2022-10-12T04:55:53;4.30;99.90
21778;DHT22;11050;52.222;20.916;2022-10-12T04:58:19;4.30;99.90
21778;DHT22;11050;52.222;20.916;2022-10-12T05:00:47;4.30;99.90
21778;DHT22;11050;52.222;20.916;2022-10-12T05:03:14;4.30;99.90
21778;DHT22;11050;52.222;20.916;2022-10-12T05:05:42;4.30;99.90
21778;DHT22;11050;52.222;20.916;2022-10-12T05:08:09;4.30;99.90
21778;DHT22;11050;52.222;20.916;2022-10-12T05:10:34;4.30;99.90
21778;DHT22;11050;52.222;20.916;2022-10-12T05:13:00;4.30;99.90
21778;DHT22;11050;52.222;20.916;2022-10-12T05:15:26;4.30;99.90
21778;DHT22;11050;52.222;20.916;2022-10-12T05:17:52;4.40;99.90
21778;DHT22;11050;52.222;20.916;2022-10-12T05:20:18;4.40;99.90
21778;DHT22;11050;52.222;20.916;2022-10-12T05:22:44;4.40;99.90
21778;DHT22;11050;52.222;20.916;2022-10-12T05:25:09;4.40;99.90
21778;DHT22;11050;52.222;20.916;2022-10-12T05:27:35;4.40;99.90
21778;DHT22;11050;52.222;20.916;2022-10-12T05:30:01;4.50;99.90
21778;DHT22;11050;52.222;20.916;2022-10-12T05:32:26;4.50;99.90
21778;DHT22;11050;52.222;20.916;2022-10-12T05:34:52;4.50;99.90
21778;DHT22;11050;52.222;20.916;2022-10-12T05:37:19;4.60;99.90
21778;DHT22;11050;52.222;20.916;2022-10-12T05:39:45;4.60;99.90
21778;DHT22;11050;52.222;20.916;2022-10-12T05:42:11;4.60;99.90
21778;DHT22;11050;52.222;20.916;2022-10-12T05:44:36;4.70;99.90
21778;DHT22;11050;52.222;20.916;2022-10-12T05:47:02;4.70;99.90
21778;DHT22;11050;52.222;20.916;2022-10-12T05:49:28;4.70;99.90
21778;DHT22;11050;52.222;20.916;2022-10-12T05:51:55;4.90;99.90
21778;DHT22;11050;52.222;20.916;2022-10-12T05:54:21;4.90;99.90
21778;DHT22;11050;52.222;20.916;2022-10-12T05:56:46;4.90;99.90
21778;DHT22;11050;52.222;20.916;2022-10-12T05:59:12;5.00;99.90
21778;DHT22;11050;52.222;20.916;2022-10-12T06:01:38;5.10;99.90
21778;DHT22;11050;52.222;20.916;2022-10-12T06:04:03;5.10;99.90
21778;DHT22;11050;52.222;20.916;2022-10-12T06:06:29;5.20;99.90
21778;DHT22;11050;52.222;20.916;2022-10-12T06:08:55;5.30;99.90
21778;DHT22;11050;52.222;20.916;2022-10-12T06:11:21;5.30;99.90
21778;DHT22;11050;52.222;20.916;2022-10-12T06:13:46;5.40;99.90
21778;DHT22;11050;52.222;20.916;2022-10-12T06:16:12;5.40;99.90
21778;DHT22;11050;52.222;20.916;2022-10-12T06:18:38;5.50;99.90
21778;DHT22;11050;52.222;20.916;2022-10-12T06:21:03;5.50;99.90
21778;DHT22;11050;52.222;20.916;2022-10-12T06:23:29;5.60;99.90
21778;DHT22;11050;52.222;20.916;2022-10-12T06:25:55;5.70;99.90
21778;DHT22;11050;52.222;20.916;2022-10-12T06:28:21;5.80;99.90
21778;DHT22;11050;52.222;20.916;2022-10-12T06:30:55;5.80;99.90
21778;DHT22;11050;52.222;20.916;2022-10-12T06:33:22;5.90;99.90
21778;DHT22;11050;52.222;20.916;2022-10-12T06:35:49;6.00;99.90
21778;DHT22;11050;52.222;20.916;2022-10-12T06:38:15;6.10;99.90
21778;DHT22;11050;52.222;20.916;2022-10-12T06:40:42;6.20;99.90
21778;DHT22;11050;52.222;20.916;2022-10-12T06:43:08;6.30;99.90
21778;DHT22;11050;52.222;20.916;2022-10-12T06:45:34;6.40;99.90
21778;DHT22;11050;52.222;20.916;2022-10-12T06:48:01;6.40;99.90
21778;DHT22;11050;52.222;20.916;2022-10-12T06:50:27;6.50;99.90
21778;DHT22;11050;52.222;20.916;2022-10-12T06:52:53;6.60;99.90
21778;DHT22;11050;52.222;20.916;2022-10-12T06:55:19;6.60;99.90
21778;DHT22;11050;52.222;20.916;2022-10-12T06:57:45;6.70;99.90
21778;DHT22;11050;52.222;20.916;2022-10-12T07:00:11;6.80;99.90
21778;DHT22;11050;52.222;20.916;2022-10-12T07:02:38;6.90;99.90
21778;DHT22;11050;52.222;20.916;2022-10-12T07:05:05;6.90;99.90
21778;DHT22;11050;52.222;20.916;2022-10-12T07:07:33;7.10;99.90
21778;DHT22;11050;52.222;20.916;2022-10-12T07:10:00;7.10;99.90
21778;DHT22;11050;52.222;20.916;2022-10-12T07:12:26;7.20;99.90
21778;DHT22;11050;52.222;20.916;2022-10-12T07:14:52;7.30;99.90
21778;DHT22;11050;52.222;20.916;2022-10-12T07:17:21;7.50;99.90
21778;DHT22;11050;52.222;20.916;2022-10-12T07:19:46;7.60;99.90
21778;DHT22;11050;52.222;20.916;2022-10-12T07:22:12;7.70;99.90
21778;DHT22;11050;52.222;20.916;2022-10-12T07:24:38;7.80;99.90
21778;DHT22;11050;52.222;20.916;2022-10-12T07:27:05;7.90;99.90
21778;DHT22;11050;52.222;20.916;2022-10-12T07:29:34;8.00;99.90
21778;DHT22;11050;52.222;20.916;2022-10-12T07:32:01;8.10;99.90
21778;DHT22;11050;52.222;20.916;2022-10-12T07:34:28;8.30;99.90
21778;DHT22;11050;52.222;20.916;2022-10-12T07:36:55;8.40;99.90
21778;DHT22;11050;52.222;20.916;2022-10-12T07:39:22;8.50;99.90
21778;DHT22;11050;52.222;20.916;2022-10-12T07:41:49;8.60;99.90
21778;DHT22;11050;52.222;20.916;2022-10-12T07:44:16;8.70;99.90
21778;DHT22;11050;52.222;20.916;2022-10-12T07:46:42;8.80;99.90
21778;DHT22;11050;52.222;20.916;2022-10-12T07:49:08;9.00;99.90
21778;DHT22;11050;52.222;20.916;2022-10-12T07:51:36;9.10;99.90
21778;DHT22;11050;52.222;20.916;2022-10-12T07:54:02;9.20;99.90
21778;DHT22;11050;52.222;20.916;2022-10-12T07:56:28;9.40;99.90
21778;DHT22;11050;52.222;20.916;2022-10-12T07:58:55;9.50;99.90
21778;DHT22;11050;52.222;20.916;2022-10-12T08:01:27;9.60;99.90
21778;DHT22;11050;52.222;20.916;2022-10-12T08:03:57;9.70;99.90
21778;DHT22;11050;52.222;20.916;2022-10-12T08:06:27;9.80;99.90
21778;DHT22;11050;52.222;20.916;2022-10-12T08:08:58;9.90;99.90
21778;DHT22;11050;52.222;20.916;2022-10-12T08:11:25;10.00;99.90
21778;DHT22;11050;52.222;20.916;2022-10-12T08:13:51;10.10;99.90
21778;DHT22;11050;52.222;20.916;2022-10-12T08:16:19;10.20;99.90
21778;DHT22;11050;52.222;20.916;2022-10-12T08:18:46;10.30;99.90
21778;DHT22;11050;52.222;20.916;2022-10-12T08:21:13;10.40;99.90
21778;DHT22;11050;52.222;20.916;2022-10-12T08:23:40;10.50;99.90
21778;DHT22;11050;52.222;20.916;2022-10-12T08:26:07;10.60;99.90
21778;DHT22;11050;52.222;20.916;2022-10-12T08:28:34;10.60;99.90
21778;DHT22;11050;52.222;20.916;2022-10-12T08:31:08;10.60;99.90
21778;DHT22;11050;52.222;20.916;2022-10-12T08:33:37;10.70;99.90
21778;DHT22;11050;52.222;20.916;2022-10-12T08:36:04;10.80;99.90
21778;DHT22;11050;52.222;20.916;2022-10-12T08:38:31;10.90;99.90
21778;DHT22;11050;52.222;20.916;2022-10-12T08:44:56;11.10;99.90
21778;DHT22;11050;52.222;20.916;2022-10-12T08:47:51;11.20;99.90
21778;DHT22;11050;52.222;20.916;2022-10-12T08:50:35;11.30;99.90
21778;DHT22;11050;52.222;20.916;2022-10-12T08:53:20;11.40;99.90
21778;DHT22;11050;52.222;20.916;2022-10-12T08:55:53;11.40;99.90
21778;DHT22;11050;52.222;20.916;2022-10-12T08:58:34;11.50;99.90
21778;DHT22;11050;52.222;20.916;2022-10-12T09:06:59;11.80;99.90
21778;DHT22;11050;52.222;20.916;2022-10-12T09:16:26;12.10;99.90
21778;DHT22;11050;52.222;20.916;2022-10-12T09:18:58;12.20;99.90
21778;DHT22;11050;52.222;20.916;2022-10-12T09:21:30;12.30;99.90
21778;DHT22;11050;52.222;20.916;2022-10-12T09:23:57;12.40;99.90
21778;DHT22;11050;52.222;20.916;2022-10-12T09:26:34;12.40;99.90
21778;DHT22;11050;52.222;20.916;2022-10-12T09:29:12;12.50;99.90
21778;DHT22;11050;52.222;20.916;2022-10-12T09:32:22;12.60;99.90
21778;DHT22;11050;52.222;20.916;2022-10-12T09:35:04;12.70;99.90
21778;DHT22;11050;52.222;20.916;2022-10-12T09:37:34;12.80;99.90
21778;DHT22;11050;52.222;20.916;2022-10-12T09:40:01;12.80;99.90
21778;DHT22;11050;52.222;20.916;2022-10-12T09:42:27;12.90;99.90
21778;DHT22;11050;52.222;20.916;2022-10-12T09:44:57;13.00;99.90
21778;DHT22;11050;52.222;20.916;2022-10-12T09:47:28;13.10;99.90
21778;DHT22;11050;52.222;20.916;2022-10-12T09:49:58;13.20;99.90
21778;DHT22;11050;52.222;20.916;2022-10-12T09:52:46;13.20;99.90
21778;DHT22;11050;52.222;20.916;2022-10-12T09:57:42;13.50;99.90
21778;DHT22;11050;52.222;20.916;2022-10-12T10:02:51;13.70;99.90
21778;DHT22;11050;52.222;20.916;2022-10-12T10:05:36;13.80;99.90
21778;DHT22;11050;52.222;20.916;2022-10-12T10:08:22;13.80;99.90
21778;DHT22;11050;52.222;20.916;2022-10-12T10:10:49;13.90;99.90
21778;DHT22;11050;52.222;20.916;2022-10-12T10:13:17;13.90;99.90
21778;DHT22;11050;52.222;20.916;2022-10-12T10:16:00;14.00;99.90
21778;DHT22;11050;52.222;20.916;2022-10-12T10:19:13;14.00;99.90
21778;DHT22;11050;52.222;20.916;2022-10-12T10:21:32;14.10;99.90
21778;DHT22;11050;52.222;20.916;2022-10-12T10:24:01;14.20;99.90
21778;DHT22;11050;52.222;20.916;2022-10-12T10:26:50;14.20;99.90
21778;DHT22;11050;52.222;20.916;2022-10-12T10:29:34;14.30;99.90
21778;DHT22;11050;52.222;20.916;2022-10-12T10:32:14;14.40;99.90
21778;DHT22;11050;52.222;20.916;2022-10-12T10:35:20;14.60;99.90
21778;DHT22;11050;52.222;20.916;2022-10-12T10:37:49;14.70;99.90
21778;DHT22;11050;52.222;20.916;2022-10-12T10:40:25;14.80;99.90
21778;DHT22;11050;52.222;20.916;2022-10-12T10:43:04;15.00;99.90
21778;DHT22;11050;52.222;20.916;2022-10-12T10:45:56;15.10;99.90
21778;DHT22;11050;52.222;20.916;2022-10-12T10:48:31;15.20;99.80
21778;DHT22;11050;52.222;20.916;2022-10-12T10:51:16;15.30;99.50
21778;DHT22;11050;52.222;20.916;2022-10-12T10:53:47;15.50;99.90
21778;DHT22;11050;52.222;20.916;2022-10-12T10:56:32;15.70;99.30
21778;DHT22;11050;52.222;20.916;2022-10-12T10:59:46;15.90;96.60
21778;DHT22;11050;52.222;20.916;2022-10-12T11:08:27;16.70;91.80
21778;DHT22;11050;52.222;20.916;2022-10-12T11:11:11;16.90;90.10
21778;DHT22;11050;52.222;20.916;2022-10-12T11:13:52;17.00;84.60
21778;DHT22;11050;52.222;20.916;2022-10-12T11:24:44;17.60;78.90
21778;DHT22;11050;52.222;20.916;2022-10-12T11:29:50;18.00;75.20
21778;DHT22;11050;52.222;20.916;2022-10-12T11:32:30;18.30;71.50
21778;DHT22;11050;52.222;20.916;2022-10-12T11:35:02;18.50;68.90
21778;DHT22;11050;52.222;20.916;2022-10-12T11:40:36;19.10;65.70
21778;DHT22;11050;52.222;20.916;2022-10-12T11:43:12;19.40;62.70
21778;DHT22;11050;52.222;20.916;2022-10-12T11:45:56;19.60;60.30
21778;DHT22;11050;52.222;20.916;2022-10-12T11:48:40;19.50;58.90
21778;DHT22;11050;52.222;20.916;2022-10-12T11:51:11;19.80;59.50
21778;DHT22;11050;52.222;20.916;2022-10-12T11:56:37;20.20;56.60
21778;DHT22;11050;52.222;20.916;2022-10-12T11:59:23;20.50;55.20
21778;DHT22;11050;52.222;20.916;2022-10-12T12:04:36;20.60;54.20
21778;DHT22;11050;52.222;20.916;2022-10-12T12:07:46;20.90;52.80
21778;DHT22;11050;52.222;20.916;2022-10-12T12:16:20;20.40;53.90
21778;DHT22;11050;52.222;20.916;2022-10-12T12:19:15;20.20;54.50
21778;DHT22;11050;52.222;20.916;2022-10-12T12:22:47;20.10;54.50
21778;DHT22;11050;52.222;20.916;2022-10-12T12:25:18;20.10;54.70
21778;DHT22;11050;52.222;20.916;2022-10-12T12:27:53;19.90;54.30
21778;DHT22;11050;52.222;20.916;2022-10-12T12:30:36;19.70;54.80
21778;DHT22;11050;52.222;20.916;2022-10-12T12:36:23;19.90;55.30
21778;DHT22;11050;52.222;20.916;2022-10-12T12:38:54;19.80;55.30
21778;DHT22;11050;52.222;20.916;2022-10-12T12:41:23;19.50;54.80
21778;DHT22;11050;52.222;20.916;2022-10-12T12:44:00;19.20;55.20
21778;DHT22;11050;52.222;20.916;2022-10-12T12:49:37;19.80;55.70
21778;DHT22;11050;52.222;20.916;2022-10-12T13:04:15;21.00;49.50
21778;DHT22;11050;52.222;20.916;2022-10-12T13:21:28;18.10;57.60
21778;DHT22;11050;52.222;20.916;2022-10-12T13:24:10;17.80;58.80
21778;DHT22;11050;52.222;20.916;2022-10-12T13:26:45;17.50;60.20
21778;DHT22;11050;52.222;20.916;2022-10-12T13:38:21;18.60;60.00
21778;DHT22;11050;52.222;20.916;2022-10-12T13:41:05;19.50;57.70
21778;DHT22;11050;52.222;20.916;2022-10-12T13:46:50;20.80;51.90
21778;DHT22;11050;52.222;20.916;2022-10-12T13:49:23;20.80;51.40
21778;DHT22;11050;52.222;20.916;2022-10-12T13:54:36;20.10;51.00
21778;DHT22;11050;52.222;20.916;2022-10-12T14:00:17;19.00;53.00
21778;DHT22;11050;52.222;20.916;2022-10-12T14:02:59;18.40;54.80
21778;DHT22;11050;52.222;20.916;2022-10-12T14:05:29;17.90;56.60
21778;DHT22;11050;52.222;20.916;2022-10-12T14:08:02;17.60;57.90
21778;DHT22;11050;52.222;20.916;2022-10-12T14:10:35;17.20;59.10
21778;DHT22;11050;52.222;20.916;2022-10-12T14:13:03;16.90;60.60
21778;DHT22;11050;52.222;20.916;2022-10-12T14:15:34;16.70;62.60
21778;DHT22;11050;52.222;20.916;2022-10-12T14:18:28;16.50;64.00
21778;DHT22;11050;52.222;20.916;2022-10-12T14:21:10;16.30;65.70
21778;DHT22;11050;52.222;20.916;2022-10-12T14:23:48;16.10;67.50
21778;DHT22;11050;52.222;20.916;2022-10-12T14:26:43;16.00;69.40
21778;DHT22;11050;52.222;20.916;2022-10-12T14:35:18;15.50;80.00
21778;DHT22;11050;52.222;20.916;2022-10-12T14:37:54;15.40;84.20
21778;DHT22;11050;52.222;20.916;2022-10-12T14:40:32;15.30;89.50
21778;DHT22;11050;52.222;20.916;2022-10-12T14:45:37;15.20;92.90
21778;DHT22;11050;52.222;20.916;2022-10-12T14:48:03;15.10;94.10
21778;DHT22;11050;52.222;20.916;2022-10-12T14:50:34;15.10;96.30
21778;DHT22;11050;52.222;20.916;2022-10-12T14:53:02;15.00;97.70
21778;DHT22;11050;52.222;20.916;2022-10-12T14:55:33;14.90;98.00
21778;DHT22;11050;52.222;20.916;2022-10-12T14:57:59;14.90;98.70
21778;DHT22;11050;52.222;20.916;2022-10-12T15:00:30;14.80;98.60
21778;DHT22;11050;52.222;20.916;2022-10-12T15:02:58;14.70;99.20
21778;DHT22;11050;52.222;20.916;2022-10-12T15:05:25;14.70;99.50
21778;DHT22;11050;52.222;20.916;2022-10-12T15:07:59;14.60;99.90
21778;DHT22;11050;52.222;20.916;2022-10-12T15:10:26;14.60;99.90
21778;DHT22;11050;52.222;20.916;2022-10-12T15:12:53;14.50;99.90
21778;DHT22;11050;52.222;20.916;2022-10-12T15:15:48;14.40;99.90
21778;DHT22;11050;52.222;20.916;2022-10-12T15:18:14;14.40;99.90
21778;DHT22;11050;52.222;20.916;2022-10-12T15:20:39;14.30;99.90
21778;DHT22;11050;52.222;20.916;2022-10-12T15:23:05;14.30;99.90
21778;DHT22;11050;52.222;20.916;2022-10-12T15:25:42;14.20;99.90
21778;DHT22;11050;52.222;20.916;2022-10-12T15:28:12;14.10;99.90
21778;DHT22;11050;52.222;20.916;2022-10-12T15:30:37;14.10;99.90
21778;DHT22;11050;52.222;20.916;2022-10-12T15:33:03;14.00;99.90
21778;DHT22;11050;52.222;20.916;2022-10-12T15:35:32;14.00;99.90
21778;DHT22;11050;52.222;20.916;2022-10-12T15:38:00;13.90;99.90
21778;DHT22;11050;52.222;20.916;2022-10-12T15:40:28;13.90;99.90
21778;DHT22;11050;52.222;20.916;2022-10-12T15:42:55;13.80;99.90
21778;DHT22;11050;52.222;20.916;2022-10-12T15:45:26;13.80;99.90
21778;DHT22;11050;52.222;20.916;2022-10-12T15:47:55;13.70;99.90
21778;DHT22;11050;52.222;20.916;2022-10-12T15:50:24;13.60;99.90
21778;DHT22;11050;52.222;20.916;2022-10-12T15:52:54;13.50;99.90
21778;DHT22;11050;52.222;20.916;2022-10-12T15:55:27;13.50;99.90
21778;DHT22;11050;52.222;20.916;2022-10-12T15:57:54;13.40;99.90
21778;DHT22;11050;52.222;20.916;2022-10-12T16:00:23;13.40;99.90
21778;DHT22;11050;52.222;20.916;2022-10-12T16:02:50;13.30;99.90
21778;DHT22;11050;52.222;20.916;2022-10-12T16:07:51;13.20;99.90
21778;DHT22;11050;52.222;20.916;2022-10-12T16:10:19;13.10;99.90
21778;DHT22;11050;52.222;20.916;2022-10-12T16:12:49;13.10;99.90
21778;DHT22;11050;52.222;20.916;2022-10-12T16:15:22;13.00;99.90
21778;DHT22;11050;52.222;20.916;2022-10-12T16:17:50;13.00;99.90
21778;DHT22;11050;52.222;20.916;2022-10-12T16:20:16;12.90;99.90
21778;DHT22;11050;52.222;20.916;2022-10-12T16:22:43;12.90;99.90
21778;DHT22;11050;52.222;20.916;2022-10-12T16:25:11;12.90;99.90
21778;DHT22;11050;52.222;20.916;2022-10-12T16:27:38;12.80;99.90
21778;DHT22;11050;52.222;20.916;2022-10-12T16:30:05;12.80;99.90
21778;DHT22;11050;52.222;20.916;2022-10-12T16:32:32;12.70;99.90
21778;DHT22;11050;52.222;20.916;2022-10-12T16:34:58;12.70;99.90
21778;DHT22;11050;52.222;20.916;2022-10-12T16:37:23;12.70;99.90
21778;DHT22;11050;52.222;20.916;2022-10-12T16:39:51;12.60;99.90
21778;DHT22;11050;52.222;20.916;2022-10-12T16:42:18;12.60;99.90
21778;DHT22;11050;52.222;20.916;2022-10-12T16:44:45;12.60;99.90
21778;DHT22;11050;52.222;20.916;2022-10-12T16:47:11;12.60;99.90
21778;DHT22;11050;52.222;20.916;2022-10-12T16:49:37;12.50;99.90
21778;DHT22;11050;52.222;20.916;2022-10-12T16:52:03;12.50;99.90
21778;DHT22;11050;52.222;20.916;2022-10-12T16:54:30;12.50;99.90
21778;DHT22;11050;52.222;20.916;2022-10-12T16:56:57;12.40;99.90
21778;DHT22;11050;52.222;20.916;2022-10-12T16:59:23;12.40;99.90
21778;DHT22;11050;52.222;20.916;2022-10-12T17:01:50;12.40;99.90
21778;DHT22;11050;52.222;20.916;2022-10-12T17:04:16;12.40;99.90
21778;DHT22;11050;52.222;20.916;2022-10-12T17:06:43;12.40;99.90
21778;DHT22;11050;52.222;20.916;2022-10-12T17:09:09;12.40;99.90
21778;DHT22;11050;52.222;20.916;2022-10-12T17:11:36;12.30;99.90
21778;DHT22;11050;52.222;20.916;2022-10-12T17:14:04;12.30;99.90
21778;DHT22;11050;52.222;20.916;2022-10-12T17:16:32;12.30;99.90
21778;DHT22;11050;52.222;20.916;2022-10-12T17:19:23;12.30;99.90
21778;DHT22;11050;52.222;20.916;2022-10-12T17:21:51;12.30;99.90
21778;DHT22;11050;52.222;20.916;2022-10-12T17:24:19;12.30;99.90
21778;DHT22;11050;52.222;20.916;2022-10-12T17:26:46;12.30;99.90
21778;DHT22;11050;52.222;20.916;2022-10-12T17:29:14;12.30;99.90
21778;DHT22;11050;52.222;20.916;2022-10-12T17:31:42;12.20;99.90
21778;DHT22;11050;52.222;20.916;2022-10-12T17:34:17;12.20;99.90
21778;DHT22;11050;52.222;20.916;2022-10-12T17:36:47;12.20;99.90
21778;DHT22;11050;52.222;20.916;2022-10-12T17:39:14;12.20;99.90
21778;DHT22;11050;52.222;20.916;2022-10-12T17:41:40;12.20;99.90
21778;DHT22;11050;52.222;20.916;2022-10-12T17:44:07;12.20;99.90
21778;DHT22;11050;52.222;20.916;2022-10-12T17:46:36;12.10;99.90
21778;DHT22;11050;52.222;20.916;2022-10-12T17:49:03;12.10;99.90
21778;DHT22;11050;52.222;20.916;2022-10-12T17:51:29;12.10;99.90
21778;DHT22;11050;52.222;20.916;2022-10-12T17:53:55;12.10;99.90
21778;DHT22;11050;52.222;20.916;2022-10-12T17:56:21;12.10;99.90
21778;DHT22;11050;52.222;20.916;2022-10-12T17:58:55;12.10;99.90
21778;DHT22;11050;52.222;20.916;2022-10-12T18:01:23;12.10;99.90
21778;DHT22;11050;52.222;20.916;2022-10-12T18:03:50;12.10;99.90
21778;DHT22;11050;52.222;20.916;2022-10-12T18:06:18;12.10;99.90
21778;DHT22;11050;52.222;20.916;2022-10-12T18:08:48;12.00;99.90
21778;DHT22;11050;52.222;20.916;2022-10-12T18:11:17;12.00;99.90
21778;DHT22;11050;52.222;20.916;2022-10-12T18:13:50;12.00;99.90
21778;DHT22;11050;52.222;20.916;2022-10-12T18:16:19;12.00;99.90
21778;DHT22;11050;52.222;20.916;2022-10-12T18:18:48;12.00;99.90
21778;DHT22;11050;52.222;20.916;2022-10-12T18:21:15;12.00;99.90
21778;DHT22;11050;52.222;20.916;2022-10-12T18:23:43;12.00;99.90
21778;DHT22;11050;52.222;20.916;2022-10-12T18:26:12;12.00;99.90